CheckWX is a tool to help pilots better visualize weather data.  It is not intended as a substitute for an official pre-flight weather briefing.

13:13:27 UTC

KRTN METAR
Raton Municipal / Crews Field Airport
Raton, New Mexico, USA
Current

20 mins ago

KRTN 221253Z AUTO 24007KT 10SM CLR M03/M06 A2979 RMK AO2 SLP094 T10331056
Observed
Feb-22 @ 12:53 UTC
Wind
  • 240° at 7 KTS
Visibility
10 SM
Flight Rules
VFR
Cloud Levels
  • Clear skies
Temperature
-3°C / 27°F
Dewpoint
-6°C / 21°F
Humidity
80%
Altimeter
29.79" Hg
Pressure
1009.4 hPa
Previous

1 hour ago

KRTN 221153Z AUTO 26009KT 10SM CLR M03/M06 A2978 RMK AO2 SLP089 T10331061 10033 21033 55001
Observed
Feb-22 @ 11:53 UTC
Wind
  • 260° at 9 KTS
Visibility
10 SM
Flight Rules
VFR
Cloud Levels
  • Clear skies
Temperature
-3°C / 27°F
Dewpoint
-6°C / 21°F
Humidity
80%
Altimeter
29.78" Hg
Pressure
1008.9 hPa
Previous

2 hours ago

KRTN 221053Z AUTO 20008KT 10SM BKN090 M01/M07 A2977 RMK AO2 SLP071 T10061067
Observed
Feb-22 @ 10:53 UTC
Wind
  • 200° at 8 KTS
Visibility
10 SM
Flight Rules
VFR
Cloud Levels
  • Broken at 9,000' AGL
Temperature
-1°C / 30°F
Dewpoint
-7°C / 19°F
Humidity
64%
Altimeter
29.77" Hg
Pressure
1007.1 hPa